Прохоровка

СКИДКИ НА СМАРТФОНЫ!

Карта отелей и гостиниц, располагающихся рядом с аэропортом Прохоровка :

Прохоровка Белгородская область 51° 3' 1.98" N, 36° 46' 8.4612" E
Код аэродрома ИКАО
H624
Код аэродрома RU
Х624
Координаты
N51.05055° E036.76902°
Превышение над уровнем моря
241
Основная полоса
Курс магнитный
Длина основной ВПП
Ширина основной ВПП
Покрытие основной ВПП
Освещение ВПП
Тип: 
Вертодром
Класс аэродрома: 
Принадлежность: 
ГА
Статус: 
Недействующий
Сайт: 
E-mail аэродрома: 
Страна: 
Россия
Регион: 
Белгородская область
Город: 
Дополнительная информация: 

Скидки на навигаторы!

Найти трансфер

С помощью этой формы Вы можете найти трансфер из аэропорта Прохоровка в город, аэропорт или вокзал:

Погода в аэропортах:

Авиационная погода в аэропорту Алыкель

Регион: 
Погода METAR: 
UOOO 072100Z 03009MPS 1900 R01/P2000U SN BLSN OVC032 M22/M24 Q0999 R01/491030 NOSIG RMK QFE735/0980
Время наблюдения
2022-12-07T21:00:00Z
Температура C
-22.0
Точка росы
-24.0
Направление ветра
30
Скорость ветра (узлы)
17
Метео видимость
1.18
Облачность
OVC
Нижняя граница облачности (футы)
3200
Явления погоды
BLSN SN
Условия полета
IFR
Аэропорт подробнее: 
OVC – сплошная облачность;
BLSN – метель низовая или общая;

Авиационная погода в Братске

Регион: 
Погода METAR: 
UIBB 072100Z 26005MPS 240V300 8000 -SHSN BKN020CB M14/M17 Q1022 R30/820350 NOSIG RMK QFE723/0964
Время наблюдения
2022-12-07T21:00:00Z
Температура C
-14.0
Точка росы
-17.0
Направление ветра
260
Скорость ветра (узлы)
10
Метео видимость
4.97
Облачность
BKN
Нижняя граница облачности (футы)
2000
Явления погоды
-SHSN
Условия полета
MVFR
Аэропорт подробнее: 
BKN – значительная (рассеянная, разорванная) облачность;
-SHSN - слабый ливневой снег;

Авиационная погода в Гомеле

Регион: 
Погода METAR: 
UMGG 072100Z 14006G09MPS 3200 -SHSN BLSN OVC010CB M05/M07 Q1013 NOSIG
Время наблюдения
2022-12-07T21:00:00Z
Температура C
-5.0
Точка росы
-7.0
Направление ветра
140
Скорость ветра (узлы)
12
Метео видимость
1.99
Облачность
OVC
Нижняя граница облачности (футы)
1000
Явления погоды
-SHSN BLSN
Условия полета
IFR
Аэропорт подробнее: 
OVC – сплошная облачность;
-SHSN - слабый ливневой снег, BLSN – метель низовая или общая;

Авиационная погода в Новокузнецке

Регион: 
Погода METAR: 
UNWW 072100Z 11001MPS 3600 BR FU NSC M26/M29 Q1038 R19/420150 NOSIG RMK QFE751
Время наблюдения
2022-12-07T21:00:00Z
Температура C
-26.0
Точка росы
-29.0
Направление ветра
110
Скорость ветра (узлы)
2
Метео видимость
2.24
Облачность
CLR
Нижняя граница облачности (футы)
Явления погоды
BR FU
Условия полета
IFR
Аэропорт подробнее: 
CLR — нет облаков ниже 3000 м
BR – дымка (видимость от 1 до 9 км); FU – дым (видимость менее 10 км);